Sierra Vista Municipal Libby Army Air Field
KFHU : now visible

Airfield :











YOU CAN JOIN US ON...

 
LOGIN :

Register | Disclaimer

   EN    FR    IT 

 









Legend :    VFR   Marginal VFR   IFR   Intensive IFR   Very Intensive IFR
Visi :
Ceiling :
>= 8 km
>= 3000ft
5 to 8 km
1000 to 3000 ft
1500m to 5 km
500 to 1000 ft
800 to 1500m
200 to 500 ft
< 800m
< 200 ft
Symbols :   Thunderstorms  Fog  Heavy snow  Heavy precipitations  Wind > 20 kt






- Airport Elevation : 4719 ft
- IATA code : FHU


KFHU - Sierra Vista Municipal Libby Army Air Field

CURRENT METAR :
  • 290558Z 24006KT 10SM VCSH SCT120 23/15 A3018 RMK AO2A SLP142 SH E 60000 T02290149 10257 20217 50005

EXPIRED METARs :
  • 290550Z 20003KT 10SM VCSH BKN120 BKN140 23/15 A3018 RMK AO2A SLP142 SH E 50006
  • 290526Z 19007KT 10SM VCSH BKN150 OVC180 22/15 A3020 RMK AO2A SLP152 SH E 52013
  • 290458Z AUTO 10009KT 10SM VCTS FEW080 SCT160 22/15 A3022 RMK AO2 SLP159 T02190148
  • 290437Z AUTO 01007KT 10SM VCTS SCT150 23/15 A3021 RMK AO2 SLP155
  • 290358Z AUTO 27009KT 10SM BKN120 OVC140 24/15 A3019 RMK AO2 LTG DSNT N AND E SLP148 T02400154
  • 290329Z 26006KT 10SM BKN150 24/14 A3018 RMK AO2A SLP145

TAF TAF KFHU
Valid from the 29 at 06:00 until the 30 at 12:00 UTC


290600Z 2906/3012 23009KT 9999 VCSH SCT070 BKN140 QNH3017INS
TEMPO 2906/2907 VRB20G35KT 9999 -SHRA BKN065
BECMG 2906/2907 26012KT 9999 VCTS SCT060CB BKN140 QNH3018INS
TEMPO 2907/2909 VRB20G35KT 8000 -TSRA BKN055CB
BECMG 2908/2909 24009KT 9999 NSW SCT070 SCT150 QNH3016INS
BECMG 2916/2917 10010G16KT 9999 SCT070 510005 QNH3016INS
BECMG 2918/2919 10012G18KT 9999 VCTS SCT070CB QNH3009INS
TEMPO 2919/3004 VRB20G35KT 4800 -TSRA OVC060CB
BECMG 3006/3007 25012KT 9999 NSW SCT060 BKN200 QNH3015INS TX32/2921Z TN20/2912Z
KZAB FIR / North America



MET'MAP, your aeronautical weather chart ! - Copyright ORBIFLY December 2007 - Disclaimer

ORBIFLY MET'MAP TEAM :

Programming & Development : Alexandra Zaïnal
Concept & original design : Baudouin d'Aumeries
Assistance for programming : Marc-Olivier Méhu
Technical & hardware support : Manuel Goepfert

Contact : metmap@orbifly.com




SOURCES & CREDITS :

   NOAA       Earth
Advisory